• Join FlightAware (Why Join?)
  • Login
  • US Flag 
01:14PM EDT


 

Airport Tracker/Info


-or-


 

Live Flight TrackerFlight Track Log ✈ SWA127 ✈ 16-Apr-2013 ✈ KHOU - KHRL

Flight Track Log - Related Links

Times and Time Zones

All times are in EDT time to prevent confusion due to time zone crossing. See the SWA127 flight status page for this flight to view local times or setup timezone preferences in your user account.

Time Position Orientation Groundspeed Altitude Reporting Facility
EDT Latitude Longitude Course Direction KTS MPH feet Rate Location/Type
11:38AM 29.6356 -95.2675 154° Southeast 136 157 700  Level Houston Center
11:39AM 29.6000 -95.2478 154° Southeast 179 206 2,300 1,920 Climbing Houston Center
11:40AM 29.5489 -95.2178 153° Southeast 209 241 4,500 2,280 Climbing Houston Center
11:41AM 29.4961 -95.2319 193° South 247 284 6,600 2,700 Climbing Houston Center
11:42AM 29.4292 -95.2647 203° Southwest 259 298 9,600 2,220 Climbing Houston Center
11:43AM 29.3497 -95.3044 204° Southwest 308 354 11,300 1,980 Climbing Houston Center
11:44AM 29.2606 -95.3486 203° Southwest 345 397 13,800 2,760 Climbing Houston Center
11:45AM 29.1475 -95.4053 204° Southwest 366 421 17,100 2,640 Climbing Houston Center
11:46AM 29.0519 -95.4525 203° Southwest 372 428 19,300 2,100 Climbing Houston Center
11:47AM 28.9686 -95.5278 218° Southwest 384 442 21,500 2,040 Climbing Houston Center
11:48AM 28.8869 -95.6100 221° Southwest 392 451 23,600 1,860 Climbing Houston Center
11:49AM 28.8031 -95.6922 221° Southwest 396 456 25,400 1,980 Climbing Houston Center
11:50AM 28.6983 -95.7936 220° Southwest 408 470 27,800 2,400 Climbing Houston Center
11:51AM 28.6169 -95.8731 221° Southwest 394 453 30,400 2,100 Climbing Houston Center
11:52AM 28.5386 -95.9500 221° Southwest 379 436 32,200 1,380 Climbing Houston Center
11:53AM 28.4572 -96.0281 220° Southwest 368 423 33,300 840 Climbing Houston Center
11:54AM 28.3775 -96.1058 221° Southwest 375 432 34,000 300 Climbing Houston Center
11:55AM 28.2981 -96.1825 220° Southwest 373 429 34,000  Level Houston Center
11:56AM 28.2178 -96.2589 220° Southwest 376 433 34,000  Level Houston Center
11:57AM 28.1381 -96.3356 220° Southwest 376 433 34,000  Level Houston Center
11:58AM 28.0425 -96.4281 221° Southwest 376 433 34,000  Level Houston Center
11:59AM 27.9633 -96.5036 220° Southwest 372 428 34,000 -60 Level Houston Center
12:00PM 27.8842 -96.5803 221° Southwest 374 430 33,900  Descending Houston Center
12:01PM 27.8044 -96.6558 220° Southwest 373 429 34,000  Climbing Houston Center
12:02PM 27.7250 -96.7317 220° Southwest 374 430 34,000 -180 Level Houston Center
12:03PM 27.6306 -96.8203 220° Southwest 369 425 33,700 -1,740 Descending Houston Center
12:04PM 27.5531 -96.8944 220° Southwest 366 421 30,500 -3,300 Descending Houston Center
12:06PM 27.4728 -96.9706 220° Southwest 372 428 27,000 -2,880 Descending Houston Center
12:07PM 27.3894 -97.0472 219° Southwest 377 434 24,600 -2,220 Descending Houston Center
12:08PM 27.3147 -97.1192 221° Southwest 361 415 22,500 -2,040 Descending Houston Center
12:09PM 27.2411 -97.1878 220° Southwest 347 399 20,400 -2,040 Descending Houston Center
12:10PM 27.1617 -97.2458 213° Southwest 344 396 18,300 -2,340 Descending Houston Center
12:10PM 27.1203 -97.2644 202° Southwest 340 391 17,300 -2,280 Descending Houston Center
12:11PM 27.0561 -97.2917 201° Southwest 339 390 16,000 -780 Descending Houston Center
12:12PM 26.9731 -97.3294 202° Southwest 327 376 16,000 -180 Level Houston Center
12:13PM 26.8908 -97.3656 201° Southwest 319 367 15,700 -1,680 Descending Houston Center
12:14PM 26.8061 -97.4194 210° Southwest 326 375 12,600 -2,580 Descending Houston Center
12:15PM 26.7167 -97.4797 211° Southwest 321 369 10,200 -1,920 Descending Houston Center
12:16PM 26.6522 -97.5236 211° Southwest 279 321 8,500 -1,920 Descending Houston Center
12:17PM 26.5889 -97.5639 210° Southwest 264 304 6,500 -1,920 Descending Houston Center
12:18PM 26.5275 -97.6050 211° Southwest 258 297 4,700 -1,620 Descending Houston Center
12:19PM 26.4661 -97.6517 214° Southwest 247 284 3,200 -1,500 Descending Houston Center
12:19PM 26.4661 -97.6517 214° Southwest 257 296 3,200 -1,560 Level Houston Center
12:20PM 26.4042 -97.6561 184° South 234 269 1,600 -900 Descending Houston Center
12:21PM 26.3425 -97.6592 183° South 194 223 1,400 -240 Descending Houston Center
12:22PM 26.3000 -97.6586 179° South 156 180 1,200 -420 Descending Houston Center
12:23PM 26.2661 -97.6586 180° South 128 147 600 -540 Descending Houston Center
12:24PM 26.2267 -97.6586 180° South 126 145 100 -540 Descending Houston Center
12:26PM 26.2271 -97.6551 North  Level Estimated